sensor_id;sensor_type;location;lat;lon;timestamp;temperature;humidity
71184;DHT22;58887;51.980;4.464;2023-03-01T00:01:39;2.24;78.88
71184;DHT22;58887;51.980;4.464;2023-03-01T00:04:05;2.34;79.13
71184;DHT22;58887;51.980;4.464;2023-03-01T00:06:35;2.33;79.10
71184;DHT22;58887;51.980;4.464;2023-03-01T00:09:03;2.31;79.12
71184;DHT22;58887;51.980;4.464;2023-03-01T00:11:34;2.23;79.56
71184;DHT22;58887;51.980;4.464;2023-03-01T00:14:01;2.30;79.56
71184;DHT22;58887;51.980;4.464;2023-03-01T00:16:40;2.33;79.66
71184;DHT22;58887;51.980;4.464;2023-03-01T00:19:14;2.36;79.72
71184;DHT22;58887;51.980;4.464;2023-03-01T00:21:40;2.36;79.58
71184;DHT22;58887;51.980;4.464;2023-03-01T00:24:06;2.30;79.77
71184;DHT22;58887;51.980;4.464;2023-03-01T00:26:37;2.37;79.77
71184;DHT22;58887;51.980;4.464;2023-03-01T00:29:10;2.41;79.71
71184;DHT22;58887;51.980;4.464;2023-03-01T00:31:40;2.41;79.58
71184;DHT22;58887;51.980;4.464;2023-03-01T00:34:09;2.34;79.53
71184;DHT22;58887;51.980;4.464;2023-03-01T00:36:42;2.36;79.41
71184;DHT22;58887;51.980;4.464;2023-03-01T00:39:25;2.31;79.45
71184;DHT22;58887;51.980;4.464;2023-03-01T00:41:52;2.26;79.47
71184;DHT22;58887;51.980;4.464;2023-03-01T00:44:24;2.14;79.62
71184;DHT22;58887;51.980;4.464;2023-03-01T00:46:54;2.10;79.56
71184;DHT22;58887;51.980;4.464;2023-03-01T00:49:20;2.09;79.45
71184;DHT22;58887;51.980;4.464;2023-03-01T00:51:46;2.03;79.47
71184;DHT22;58887;51.980;4.464;2023-03-01T00:54:16;2.03;79.41
71184;DHT22;58887;51.980;4.464;2023-03-01T00:56:47;1.96;79.33
71184;DHT22;58887;51.980;4.464;2023-03-01T00:59:15;1.86;79.13
71184;DHT22;58887;51.980;4.464;2023-03-01T01:01:41;1.83;79.10
71184;DHT22;58887;51.980;4.464;2023-03-01T01:04:12;1.70;78.90
71184;DHT22;58887;51.980;4.464;2023-03-01T01:06:42;1.69;79.24
71184;DHT22;58887;51.980;4.464;2023-03-01T01:09:13;1.63;79.40
71184;DHT22;58887;51.980;4.464;2023-03-01T01:11:50;1.52;79.31
71184;DHT22;58887;51.980;4.464;2023-03-01T01:14:20;1.52;79.41
71184;DHT22;58887;51.980;4.464;2023-03-01T01:16:48;1.47;79.03
71184;DHT22;58887;51.980;4.464;2023-03-01T01:19:15;1.37;78.85
71184;DHT22;58887;51.980;4.464;2023-03-01T01:21:41;1.28;78.89
71184;DHT22;58887;51.980;4.464;2023-03-01T01:24:12;1.18;79.02
71184;DHT22;58887;51.980;4.464;2023-03-01T01:26:37;1.20;79.46
71184;DHT22;58887;51.980;4.464;2023-03-01T01:29:04;1.26;79.64
71184;DHT22;58887;51.980;4.464;2023-03-01T01:31:34;1.23;79.75
71184;DHT22;58887;51.980;4.464;2023-03-01T01:34:04;1.20;79.73
71184;DHT22;58887;51.980;4.464;2023-03-01T01:36:35;1.13;79.58
71184;DHT22;58887;51.980;4.464;2023-03-01T01:39:02;1.05;79.65
71184;DHT22;58887;51.980;4.464;2023-03-01T01:41:31;1.07;79.73
71184;DHT22;58887;51.980;4.464;2023-03-01T01:44:19;1.03;79.84
71184;DHT22;58887;51.980;4.464;2023-03-01T01:47:13;1.16;80.02
71184;DHT22;58887;51.980;4.464;2023-03-01T01:49:56;1.05;80.39
71184;DHT22;58887;51.980;4.464;2023-03-01T01:52:36;1.05;80.35
71184;DHT22;58887;51.980;4.464;2023-03-01T01:55:11;0.98;80.12
71184;DHT22;58887;51.980;4.464;2023-03-01T01:57:41;1.03;80.03
71184;DHT22;58887;51.980;4.464;2023-03-01T02:00:19;1.01;80.02
71184;DHT22;58887;51.980;4.464;2023-03-01T02:02:48;1.00;80.05
71184;DHT22;58887;51.980;4.464;2023-03-01T02:07:56;1.03;80.25
71184;DHT22;58887;51.980;4.464;2023-03-01T02:10:24;1.04;80.36
71184;DHT22;58887;51.980;4.464;2023-03-01T02:12:52;1.03;80.52
71184;DHT22;58887;51.980;4.464;2023-03-01T02:15:18;1.04;80.55
71184;DHT22;58887;51.980;4.464;2023-03-01T02:17:44;1.01;80.90
71184;DHT22;58887;51.980;4.464;2023-03-01T02:20:31;1.00;80.83
71184;DHT22;58887;51.980;4.464;2023-03-01T02:22:59;0.97;81.11
71184;DHT22;58887;51.980;4.464;2023-03-01T02:30:33;0.90;80.76
71184;DHT22;58887;51.980;4.464;2023-03-01T02:33:03;0.87;80.77
71184;DHT22;58887;51.980;4.464;2023-03-01T02:35:33;0.84;80.76
71184;DHT22;58887;51.980;4.464;2023-03-01T02:38:06;0.77;80.61
71184;DHT22;58887;51.980;4.464;2023-03-01T02:40:35;0.69;80.56
71184;DHT22;58887;51.980;4.464;2023-03-01T02:43:04;0.58;80.29
71184;DHT22;58887;51.980;4.464;2023-03-01T02:45:31;0.49;80.21
71184;DHT22;58887;51.980;4.464;2023-03-01T02:47:58;0.48;80.56
71184;DHT22;58887;51.980;4.464;2023-03-01T02:53:15;0.38;80.28
71184;DHT22;58887;51.980;4.464;2023-03-01T02:55:43;0.29;80.18
71184;DHT22;58887;51.980;4.464;2023-03-01T02:58:10;0.30;80.58
71184;DHT22;58887;51.980;4.464;2023-03-01T03:00:39;0.30;80.84
71184;DHT22;58887;51.980;4.464;2023-03-01T03:03:14;0.28;80.73
71184;DHT22;58887;51.980;4.464;2023-03-01T03:05:41;0.29;80.72
71184;DHT22;58887;51.980;4.464;2023-03-01T03:08:08;0.29;80.67
71184;DHT22;58887;51.980;4.464;2023-03-01T03:10:37;0.24;80.75
71184;DHT22;58887;51.980;4.464;2023-03-01T03:13:09;0.26;80.89
71184;DHT22;58887;51.980;4.464;2023-03-01T03:15:35;0.24;80.92
71184;DHT22;58887;51.980;4.464;2023-03-01T03:18:04;0.26;81.04
71184;DHT22;58887;51.980;4.464;2023-03-01T03:20:31;0.22;80.85
71184;DHT22;58887;51.980;4.464;2023-03-01T03:22:57;0.29;81.07
71184;DHT22;58887;51.980;4.464;2023-03-01T03:25:28;0.30;81.04
71184;DHT22;58887;51.980;4.464;2023-03-01T03:27:55;0.30;81.10
71184;DHT22;58887;51.980;4.464;2023-03-01T03:30:30;0.26;81.06
71184;DHT22;58887;51.980;4.464;2023-03-01T03:32:57;0.21;80.97
71184;DHT22;58887;51.980;4.464;2023-03-01T03:35:26;0.18;81.10
71184;DHT22;58887;51.980;4.464;2023-03-01T03:37:53;0.17;80.98
71184;DHT22;58887;51.980;4.464;2023-03-01T03:40:38;0.04;80.77
71184;DHT22;58887;51.980;4.464;2023-03-01T03:43:08;0.00;80.86
71184;DHT22;58887;51.980;4.464;2023-03-01T03:45:35;-0.02;81.06
71184;DHT22;58887;51.980;4.464;2023-03-01T03:48:04;-0.05;80.76
71184;DHT22;58887;51.980;4.464;2023-03-01T03:50:31;-0.12;80.58
71184;DHT22;58887;51.980;4.464;2023-03-01T03:53:06;-0.22;80.56
71184;DHT22;58887;51.980;4.464;2023-03-01T03:55:32;-0.23;80.79
71184;DHT22;58887;51.980;4.464;2023-03-01T03:58:01;-0.29;80.60
71184;DHT22;58887;51.980;4.464;2023-03-01T04:00:34;-0.33;80.69
71184;DHT22;58887;51.980;4.464;2023-03-01T04:03:01;-0.36;80.78
71184;DHT22;58887;51.980;4.464;2023-03-01T04:05:27;-0.38;80.68
71184;DHT22;58887;51.980;4.464;2023-03-01T04:07:52;-0.40;80.48
71184;DHT22;58887;51.980;4.464;2023-03-01T04:10:56;-0.45;80.64
71184;DHT22;58887;51.980;4.464;2023-03-01T04:13:20;-0.49;80.72
71184;DHT22;58887;51.980;4.464;2023-03-01T04:15:51;-0.51;80.74
71184;DHT22;58887;51.980;4.464;2023-03-01T04:18:20;-0.50;80.74
71184;DHT22;58887;51.980;4.464;2023-03-01T04:20:47;-0.50;80.65
71184;DHT22;58887;51.980;4.464;2023-03-01T04:23:16;-0.49;80.88
71184;DHT22;58887;51.980;4.464;2023-03-01T04:25:50;-0.47;81.06
71184;DHT22;58887;51.980;4.464;2023-03-01T04:28:27;-0.44;80.97
71184;DHT22;58887;51.980;4.464;2023-03-01T04:30:55;-0.43;80.94
71184;DHT22;58887;51.980;4.464;2023-03-01T04:33:22;-0.40;81.22
71184;DHT22;58887;51.980;4.464;2023-03-01T04:35:48;-0.30;81.88
71184;DHT22;58887;51.980;4.464;2023-03-01T04:38:18;-0.12;82.01
71184;DHT22;58887;51.980;4.464;2023-03-01T04:40:44;-0.02;81.82
71184;DHT22;58887;51.980;4.464;2023-03-01T04:43:11;0.05;82.03
71184;DHT22;58887;51.980;4.464;2023-03-01T04:45:39;0.05;82.04
71184;DHT22;58887;51.980;4.464;2023-03-01T04:48:06;0.09;81.91
71184;DHT22;58887;51.980;4.464;2023-03-01T04:50:32;0.12;81.88
71184;DHT22;58887;51.980;4.464;2023-03-01T04:52:58;0.15;81.89
71184;DHT22;58887;51.980;4.464;2023-03-01T04:55:25;0.19;82.04
71184;DHT22;58887;51.980;4.464;2023-03-01T04:57:51;0.25;82.10
71184;DHT22;58887;51.980;4.464;2023-03-01T05:00:21;0.30;82.11
71184;DHT22;58887;51.980;4.464;2023-03-01T05:02:56;0.28;82.35
71184;DHT22;58887;51.980;4.464;2023-03-01T05:05:48;0.30;82.69
71184;DHT22;58887;51.980;4.464;2023-03-01T05:08:19;0.38;82.68
71184;DHT22;58887;51.980;4.464;2023-03-01T05:10:51;0.41;82.68
71184;DHT22;58887;51.980;4.464;2023-03-01T05:13:23;0.37;82.93
71184;DHT22;58887;51.980;4.464;2023-03-01T05:15:57;0.44;83.00
71184;DHT22;58887;51.980;4.464;2023-03-01T05:18:27;0.39;82.99
71184;DHT22;58887;51.980;4.464;2023-03-01T05:21:08;0.28;83.15
71184;DHT22;58887;51.980;4.464;2023-03-01T05:23:34;0.26;83.13
71184;DHT22;58887;51.980;4.464;2023-03-01T05:26:02;0.19;83.01
71184;DHT22;58887;51.980;4.464;2023-03-01T05:28:30;0.15;82.96
71184;DHT22;58887;51.980;4.464;2023-03-01T05:30:56;0.09;82.83
71184;DHT22;58887;51.980;4.464;2023-03-01T05:33:23;0.01;82.75
71184;DHT22;58887;51.980;4.464;2023-03-01T05:35:49;0.00;82.91
71184;DHT22;58887;51.980;4.464;2023-03-01T05:38:22;0.04;82.96
71184;DHT22;58887;51.980;4.464;2023-03-01T05:40:59;0.02;82.93
71184;DHT22;58887;51.980;4.464;2023-03-01T05:43:25;0.04;82.89
71184;DHT22;58887;51.980;4.464;2023-03-01T05:45:57;0.07;82.83
71184;DHT22;58887;51.980;4.464;2023-03-01T05:48:23;0.04;82.75
71184;DHT22;58887;51.980;4.464;2023-03-01T05:50:48;0.00;82.70
71184;DHT22;58887;51.980;4.464;2023-03-01T05:53:17;-0.06;82.84
71184;DHT22;58887;51.980;4.464;2023-03-01T05:55:44;-0.10;82.70
71184;DHT22;58887;51.980;4.464;2023-03-01T05:58:19;-0.16;82.74
71184;DHT22;58887;51.980;4.464;2023-03-01T06:00:47;-0.16;82.75
71184;DHT22;58887;51.980;4.464;2023-03-01T06:03:17;-0.17;82.73
71184;DHT22;58887;51.980;4.464;2023-03-01T06:05:42;-0.10;82.94
71184;DHT22;58887;51.980;4.464;2023-03-01T06:08:10;-0.10;82.38
71184;DHT22;58887;51.980;4.464;2023-03-01T06:10:36;-0.19;82.25
71184;DHT22;58887;51.980;4.464;2023-03-01T06:13:02;-0.27;81.89
71184;DHT22;58887;51.980;4.464;2023-03-01T06:15:29;-0.41;81.91
71184;DHT22;58887;51.980;4.464;2023-03-01T06:17:56;-0.49;81.87
71184;DHT22;58887;51.980;4.464;2023-03-01T06:20:26;-0.53;81.85
71184;DHT22;58887;51.980;4.464;2023-03-01T06:22:52;-0.60;81.79
71184;DHT22;58887;51.980;4.464;2023-03-01T06:25:26;-0.61;82.00
71184;DHT22;58887;51.980;4.464;2023-03-01T06:27:52;-0.56;81.71
71184;DHT22;58887;51.980;4.464;2023-03-01T06:30:20;-0.62;81.68
71184;DHT22;58887;51.980;4.464;2023-03-01T06:32:45;-0.62;81.49
71184;DHT22;58887;51.980;4.464;2023-03-01T06:35:13;-0.68;81.63
71184;DHT22;58887;51.980;4.464;2023-03-01T06:37:40;-0.64;81.82
71184;DHT22;58887;51.980;4.464;2023-03-01T06:40:11;-0.61;81.93
71184;DHT22;58887;51.980;4.464;2023-03-01T06:42:42;-0.60;82.24
71184;DHT22;58887;51.980;4.464;2023-03-01T06:45:08;-0.58;82.41
71184;DHT22;58887;51.980;4.464;2023-03-01T06:47:34;-0.53;82.48
71184;DHT22;58887;51.980;4.464;2023-03-01T06:50:01;-0.49;82.36
71184;DHT22;58887;51.980;4.464;2023-03-01T06:52:27;-0.45;82.20
71184;DHT22;58887;51.980;4.464;2023-03-01T06:54:52;-0.41;82.01
71184;DHT22;58887;51.980;4.464;2023-03-01T06:57:19;-0.44;81.64
71184;DHT22;58887;51.980;4.464;2023-03-01T06:59:46;-0.53;81.32
71184;DHT22;58887;51.980;4.464;2023-03-01T07:02:14;-0.60;81.16
71184;DHT22;58887;51.980;4.464;2023-03-01T07:04:51;-0.65;80.98
71184;DHT22;58887;51.980;4.464;2023-03-01T07:07:19;-0.65;80.89
71184;DHT22;58887;51.980;4.464;2023-03-01T07:09:45;-0.58;81.44
71184;DHT22;58887;51.980;4.464;2023-03-01T07:12:11;-0.53;81.47
71184;DHT22;58887;51.980;4.464;2023-03-01T07:14:37;-0.43;81.27
71184;DHT22;58887;51.980;4.464;2023-03-01T07:17:03;-0.36;81.66
71184;DHT22;58887;51.980;4.464;2023-03-01T07:19:29;-0.24;81.55
71184;DHT22;58887;51.980;4.464;2023-03-01T07:21:54;-0.03;81.49
71184;DHT22;58887;51.980;4.464;2023-03-01T07:24:23;0.18;81.28
71184;DHT22;58887;51.980;4.464;2023-03-01T07:26:49;0.26;81.16
71184;DHT22;58887;51.980;4.464;2023-03-01T07:29:16;0.35;81.15
71184;DHT22;58887;51.980;4.464;2023-03-01T07:31:41;0.42;81.15
71184;DHT22;58887;51.980;4.464;2023-03-01T07:34:07;0.48;80.84
71184;DHT22;58887;51.980;4.464;2023-03-01T07:36:36;0.55;80.69
71184;DHT22;58887;51.980;4.464;2023-03-01T07:39:02;0.66;80.58
71184;DHT22;58887;51.980;4.464;2023-03-01T07:41:30;0.73;80.49
71184;DHT22;58887;51.980;4.464;2023-03-01T07:44:04;0.84;80.51
71184;DHT22;58887;51.980;4.464;2023-03-01T07:46:30;1.01;80.61
71184;DHT22;58887;51.980;4.464;2023-03-01T07:48:58;1.17;80.50
71184;DHT22;58887;51.980;4.464;2023-03-01T07:51:27;1.31;80.28
71184;DHT22;58887;51.980;4.464;2023-03-01T07:54:08;1.54;79.96
71184;DHT22;58887;51.980;4.464;2023-03-01T07:56:39;1.75;79.85
71184;DHT22;58887;51.980;4.464;2023-03-01T07:59:07;1.95;79.66
71184;DHT22;58887;51.980;4.464;2023-03-01T08:01:57;2.10;79.42
71184;DHT22;58887;51.980;4.464;2023-03-01T08:04:25;2.34;79.24
71184;DHT22;58887;51.980;4.464;2023-03-01T08:06:52;2.55;78.79
71184;DHT22;58887;51.980;4.464;2023-03-01T08:09:19;2.81;78.36
71184;DHT22;58887;51.980;4.464;2023-03-01T08:11:44;3.28;77.41
71184;DHT22;58887;51.980;4.464;2023-03-01T08:14:11;3.89;75.60
71184;DHT22;58887;51.980;4.464;2023-03-01T08:16:37;4.61;73.94
71184;DHT22;58887;51.980;4.464;2023-03-01T08:19:07;5.35;71.63
71184;DHT22;58887;51.980;4.464;2023-03-01T08:21:33;6.08;68.59
71184;DHT22;58887;51.980;4.464;2023-03-01T08:24:03;6.62;66.61
71184;DHT22;58887;51.980;4.464;2023-03-01T08:26:30;7.07;63.97
71184;DHT22;58887;51.980;4.464;2023-03-01T08:28:55;7.43;62.99
71184;DHT22;58887;51.980;4.464;2023-03-01T08:31:30;7.92;61.78
71184;DHT22;58887;51.980;4.464;2023-03-01T08:33:59;8.44;59.75
71184;DHT22;58887;51.980;4.464;2023-03-01T08:36:27;8.74;59.16
71184;DHT22;58887;51.980;4.464;2023-03-01T08:38:55;9.01;57.38
71184;DHT22;58887;51.980;4.464;2023-03-01T08:41:21;8.89;56.90
71184;DHT22;58887;51.980;4.464;2023-03-01T08:43:46;9.32;57.86
71184;DHT22;58887;51.980;4.464;2023-03-01T08:46:12;9.48;54.85
71184;DHT22;58887;51.980;4.464;2023-03-01T08:48:38;9.58;56.04
71184;DHT22;58887;51.980;4.464;2023-03-01T08:51:15;9.88;55.02
71184;DHT22;58887;51.980;4.464;2023-03-01T08:53:42;9.65;53.04
71184;DHT22;58887;51.980;4.464;2023-03-01T08:56:08;10.18;54.06
71184;DHT22;58887;51.980;4.464;2023-03-01T08:58:34;9.94;51.82
71184;DHT22;58887;51.980;4.464;2023-03-01T09:01:01;10.43;52.88
71184;DHT22;58887;51.980;4.464;2023-03-01T09:03:31;11.03;50.43
71184;DHT22;58887;51.980;4.464;2023-03-01T09:06:00;10.94;48.54
71184;DHT22;58887;51.980;4.464;2023-03-01T09:08:26;10.49;47.09
71184;DHT22;58887;51.980;4.464;2023-03-01T09:10:52;10.66;48.36
71184;DHT22;58887;51.980;4.464;2023-03-01T09:13:17;11.45;47.18
71184;DHT22;58887;51.980;4.464;2023-03-01T09:15:43;11.75;46.59
71184;DHT22;58887;51.980;4.464;2023-03-01T09:18:09;11.68;45.51
71184;DHT22;58887;51.980;4.464;2023-03-01T09:20:35;11.14;44.59
71184;DHT22;58887;51.980;4.464;2023-03-01T09:23:01;11.52;45.65
71184;DHT22;58887;51.980;4.464;2023-03-01T09:25:27;11.63;44.51
71184;DHT22;58887;51.980;4.464;2023-03-01T09:27:54;11.65;44.16
71184;DHT22;58887;51.980;4.464;2023-03-01T09:30:21;11.55;44.74
71184;DHT22;58887;51.980;4.464;2023-03-01T09:32:47;11.87;43.62
71184;DHT22;58887;51.980;4.464;2023-03-01T09:35:13;12.13;44.39
71184;DHT22;58887;51.980;4.464;2023-03-01T09:37:39;12.21;43.06
71184;DHT22;58887;51.980;4.464;2023-03-01T09:40:18;12.17;43.60
71184;DHT22;58887;51.980;4.464;2023-03-01T09:43:05;12.44;42.84
71184;DHT22;58887;51.980;4.464;2023-03-01T09:45:35;12.30;42.78
71184;DHT22;58887;51.980;4.464;2023-03-01T09:48:05;12.47;42.34
71184;DHT22;58887;51.980;4.464;2023-03-01T09:50:38;12.81;40.82
71184;DHT22;58887;51.980;4.464;2023-03-01T09:53:13;13.02;41.53
71184;DHT22;58887;51.980;4.464;2023-03-01T09:58:50;13.06;41.09
71184;DHT22;58887;51.980;4.464;2023-03-01T10:09:38;13.36;40.13
71184;DHT22;58887;51.980;4.464;2023-03-01T10:12:18;13.26;39.74
71184;DHT22;58887;51.980;4.464;2023-03-01T10:15:15;13.29;38.33
71184;DHT22;58887;51.980;4.464;2023-03-01T10:17:56;13.24;39.78
71184;DHT22;58887;51.980;4.464;2023-03-01T10:20:28;13.13;39.42
71184;DHT22;58887;51.980;4.464;2023-03-01T10:22:57;13.02;38.95
71184;DHT22;58887;51.980;4.464;2023-03-01T10:34:18;11.08;41.90
71184;DHT22;58887;51.980;4.464;2023-03-01T10:36:49;10.63;42.70
71184;DHT22;58887;51.980;4.464;2023-03-01T10:39:22;10.32;44.43
71184;DHT22;58887;51.980;4.464;2023-03-01T10:41:55;9.97;44.99
71184;DHT22;58887;51.980;4.464;2023-03-01T10:44:53;9.61;45.27
71184;DHT22;58887;51.980;4.464;2023-03-01T10:47:26;9.39;45.27
71184;DHT22;58887;51.980;4.464;2023-03-01T10:52:24;9.81;45.84
71184;DHT22;58887;51.980;4.464;2023-03-01T10:54:58;10.94;43.78
71184;DHT22;58887;51.980;4.464;2023-03-01T10:57:38;12.04;40.12
71184;DHT22;58887;51.980;4.464;2023-03-01T11:00:24;13.10;39.96
71184;DHT22;58887;51.980;4.464;2023-03-01T11:03:16;13.73;38.18
71184;DHT22;58887;51.980;4.464;2023-03-01T11:06:12;14.28;36.60
71184;DHT22;58887;51.980;4.464;2023-03-01T11:08:47;14.45;36.54
71184;DHT22;58887;51.980;4.464;2023-03-01T11:11:18;14.94;37.24
71184;DHT22;58887;51.980;4.464;2023-03-01T11:16:44;15.75;35.10
71184;DHT22;58887;51.980;4.464;2023-03-01T11:24:19;15.25;34.93
71184;DHT22;58887;51.980;4.464;2023-03-01T11:26:53;15.87;35.44
71184;DHT22;58887;51.980;4.464;2023-03-01T11:31:59;16.52;34.51
71184;DHT22;58887;51.980;4.464;2023-03-01T11:37:21;16.31;33.71
71184;DHT22;58887;51.980;4.464;2023-03-01T11:45:12;16.68;34.26
71184;DHT22;58887;51.980;4.464;2023-03-01T12:01:35;17.77;30.69
71184;DHT22;58887;51.980;4.464;2023-03-01T12:04:28;17.82;30.75
71184;DHT22;58887;51.980;4.464;2023-03-01T12:07:10;17.39;31.45
71184;DHT22;58887;51.980;4.464;2023-03-01T12:09:52;17.67;30.95
71184;DHT22;58887;51.980;4.464;2023-03-01T12:16:04;17.30;31.92
71184;DHT22;58887;51.980;4.464;2023-03-01T12:18:57;17.63;31.76
71184;DHT22;58887;51.980;4.464;2023-03-01T12:36:20;18.33;31.49
71184;DHT22;58887;51.980;4.464;2023-03-01T12:44:17;18.25;31.85
71184;DHT22;58887;51.980;4.464;2023-03-01T12:46:59;18.43;31.54
71184;DHT22;58887;51.980;4.464;2023-03-01T12:49:35;18.40;29.53
71184;DHT22;58887;51.980;4.464;2023-03-01T12:52:14;17.90;31.40
71184;DHT22;58887;51.980;4.464;2023-03-01T12:54:41;18.00;29.22
71184;DHT22;58887;51.980;4.464;2023-03-01T12:57:41;18.52;30.43
71184;DHT22;58887;51.980;4.464;2023-03-01T13:00:35;18.48;29.23
71184;DHT22;58887;51.980;4.464;2023-03-01T13:03:09;18.09;30.47
71184;DHT22;58887;51.980;4.464;2023-03-01T13:06:00;17.92;30.70
71184;DHT22;58887;51.980;4.464;2023-03-01T13:11:18;18.12;31.11
71184;DHT22;58887;51.980;4.464;2023-03-01T13:13:45;17.88;30.03
71184;DHT22;58887;51.980;4.464;2023-03-01T13:21:33;17.91;30.70
71184;DHT22;58887;51.980;4.464;2023-03-01T13:23:59;18.02;28.93
71184;DHT22;58887;51.980;4.464;2023-03-01T13:26:24;18.21;28.14
71184;DHT22;58887;51.980;4.464;2023-03-01T13:28:55;17.94;29.30
71184;DHT22;58887;51.980;4.464;2023-03-01T13:41:50;17.51;28.35
71184;DHT22;58887;51.980;4.464;2023-03-01T13:44:37;18.02;27.59
71184;DHT22;58887;51.980;4.464;2023-03-01T13:49:47;17.92;27.70
71184;DHT22;58887;51.980;4.464;2023-03-01T13:55:00;18.30;28.81
71184;DHT22;58887;51.980;4.464;2023-03-01T13:57:38;18.55;28.08
71184;DHT22;58887;51.980;4.464;2023-03-01T14:00:07;18.86;27.35
71184;DHT22;58887;51.980;4.464;2023-03-01T14:02:33;18.38;28.04
71184;DHT22;58887;51.980;4.464;2023-03-01T14:05:00;18.21;28.56
71184;DHT22;58887;51.980;4.464;2023-03-01T14:07:28;17.81;28.45
71184;DHT22;58887;51.980;4.464;2023-03-01T14:10:00;17.88;29.21
71184;DHT22;58887;51.980;4.464;2023-03-01T14:12:55;17.53;29.76
71184;DHT22;58887;51.980;4.464;2023-03-01T14:15:36;17.49;28.75
71184;DHT22;58887;51.980;4.464;2023-03-01T14:20:44;17.54;29.09
71184;DHT22;58887;51.980;4.464;2023-03-01T14:23:27;17.75;29.52
71184;DHT22;58887;51.980;4.464;2023-03-01T14:25:58;17.37;29.38
71184;DHT22;58887;51.980;4.464;2023-03-01T14:28:30;17.43;28.32
71184;DHT22;58887;51.980;4.464;2023-03-01T14:31:00;17.30;29.99
71184;DHT22;58887;51.980;4.464;2023-03-01T14:33:31;17.47;28.12
71184;DHT22;58887;51.980;4.464;2023-03-01T14:36:04;17.34;29.67
71184;DHT22;58887;51.980;4.464;2023-03-01T14:38:40;16.82;28.83
71184;DHT22;58887;51.980;4.464;2023-03-01T14:41:16;17.16;29.95
71184;DHT22;58887;51.980;4.464;2023-03-01T14:43:46;16.62;29.84
71184;DHT22;58887;51.980;4.464;2023-03-01T14:48:58;17.16;30.08
71184;DHT22;58887;51.980;4.464;2023-03-01T14:51:28;17.10;29.07
71184;DHT22;58887;51.980;4.464;2023-03-01T14:53:56;17.05;28.90
71184;DHT22;58887;51.980;4.464;2023-03-01T14:56:45;16.93;29.38
71184;DHT22;58887;51.980;4.464;2023-03-01T14:59:23;17.32;28.72
71184;DHT22;58887;51.980;4.464;2023-03-01T15:01:58;17.16;28.64
71184;DHT22;58887;51.980;4.464;2023-03-01T15:04:30;17.40;27.60
71184;DHT22;58887;51.980;4.464;2023-03-01T15:06:58;17.53;28.52
71184;DHT22;58887;51.980;4.464;2023-03-01T15:09:34;17.44;29.06
71184;DHT22;58887;51.980;4.464;2023-03-01T15:14:57;17.12;29.73
71184;DHT22;58887;51.980;4.464;2023-03-01T15:17:41;16.72;29.78
71184;DHT22;58887;51.980;4.464;2023-03-01T15:20:17;16.69;28.49
71184;DHT22;58887;51.980;4.464;2023-03-01T15:22:46;16.83;28.53
71184;DHT22;58887;51.980;4.464;2023-03-01T15:25:26;16.41;29.85
71184;DHT22;58887;51.980;4.464;2023-03-01T15:27:54;14.88;31.88
71184;DHT22;58887;51.980;4.464;2023-03-01T15:30:33;12.91;35.09
71184;DHT22;58887;51.980;4.464;2023-03-01T15:33:20;11.80;37.78
71184;DHT22;58887;51.980;4.464;2023-03-01T15:35:58;11.06;38.95
71184;DHT22;58887;51.980;4.464;2023-03-01T15:41:31;10.15;40.23
71184;DHT22;58887;51.980;4.464;2023-03-01T15:44:16;9.90;41.30
71184;DHT22;58887;51.980;4.464;2023-03-01T15:46:46;9.55;41.30
71184;DHT22;58887;51.980;4.464;2023-03-01T15:49:35;9.47;41.83
71184;DHT22;58887;51.980;4.464;2023-03-01T15:52:22;9.34;42.63
71184;DHT22;58887;51.980;4.464;2023-03-01T15:54:56;9.32;44.02
71184;DHT22;58887;51.980;4.464;2023-03-01T15:57:21;9.22;44.68
71184;DHT22;58887;51.980;4.464;2023-03-01T15:59:47;9.09;45.82
71184;DHT22;58887;51.980;4.464;2023-03-01T16:02:12;9.02;46.60
71184;DHT22;58887;51.980;4.464;2023-03-01T16:04:40;9.01;46.54
71184;DHT22;58887;51.980;4.464;2023-03-01T16:07:06;8.79;47.02
71184;DHT22;58887;51.980;4.464;2023-03-01T16:09:33;8.78;47.59
71184;DHT22;58887;51.980;4.464;2023-03-01T16:11:58;8.64;47.83
71184;DHT22;58887;51.980;4.464;2023-03-01T16:14:24;8.34;48.51
71184;DHT22;58887;51.980;4.464;2023-03-01T16:16:49;8.27;48.97
71184;DHT22;58887;51.980;4.464;2023-03-01T16:19:16;8.26;48.97
71184;DHT22;58887;51.980;4.464;2023-03-01T16:21:42;8.22;48.83
71184;DHT22;58887;51.980;4.464;2023-03-01T16:24:16;8.10;49.41
71184;DHT22;58887;51.980;4.464;2023-03-01T16:26:42;8.06;50.00
71184;DHT22;58887;51.980;4.464;2023-03-01T16:29:07;8.07;49.40
71184;DHT22;58887;51.980;4.464;2023-03-01T16:31:35;8.03;49.90
71184;DHT22;58887;51.980;4.464;2023-03-01T16:34:00;8.03;49.75
71184;DHT22;58887;51.980;4.464;2023-03-01T16:36:27;8.06;49.50
71184;DHT22;58887;51.980;4.464;2023-03-01T16:39:08;8.04;49.63
71184;DHT22;58887;51.980;4.464;2023-03-01T16:41:34;8.00;49.28
71184;DHT22;58887;51.980;4.464;2023-03-01T16:44:00;7.83;50.13
71184;DHT22;58887;51.980;4.464;2023-03-01T16:46:28;7.71;50.76
71184;DHT22;58887;51.980;4.464;2023-03-01T16:48:55;7.68;51.18
71184;DHT22;58887;51.980;4.464;2023-03-01T16:51:22;7.56;51.08
71184;DHT22;58887;51.980;4.464;2023-03-01T16:53:49;7.65;50.88
71184;DHT22;58887;51.980;4.464;2023-03-01T16:56:17;7.59;50.82
71184;DHT22;58887;51.980;4.464;2023-03-01T16:58:45;7.59;50.95
71184;DHT22;58887;51.980;4.464;2023-03-01T17:01:20;7.45;52.00
71184;DHT22;58887;51.980;4.464;2023-03-01T17:03:49;7.41;51.70
71184;DHT22;58887;51.980;4.464;2023-03-01T17:06:20;7.45;51.88
71184;DHT22;58887;51.980;4.464;2023-03-01T17:08:51;7.36;52.56
71184;DHT22;58887;51.980;4.464;2023-03-01T17:11:21;7.24;52.06
71184;DHT22;58887;51.980;4.464;2023-03-01T17:13:56;7.30;52.37
71184;DHT22;58887;51.980;4.464;2023-03-01T17:16:27;7.25;52.35
71184;DHT22;58887;51.980;4.464;2023-03-01T17:19:09;7.00;53.46
71184;DHT22;58887;51.980;4.464;2023-03-01T17:21:35;6.90;53.32
71184;DHT22;58887;51.980;4.464;2023-03-01T17:24:08;6.82;53.66
71184;DHT22;58887;51.980;4.464;2023-03-01T17:26:34;6.83;53.38
71184;DHT22;58887;51.980;4.464;2023-03-01T17:29:05;6.83;53.39
71184;DHT22;58887;51.980;4.464;2023-03-01T17:31:32;6.83;53.74
71184;DHT22;58887;51.980;4.464;2023-03-01T17:34:08;6.72;54.19
71184;DHT22;58887;51.980;4.464;2023-03-01T17:36:36;6.69;54.43
71184;DHT22;58887;51.980;4.464;2023-03-01T17:39:11;6.71;54.55
71184;DHT22;58887;51.980;4.464;2023-03-01T17:41:39;6.66;54.66
71184;DHT22;58887;51.980;4.464;2023-03-01T17:44:04;6.57;55.01
71184;DHT22;58887;51.980;4.464;2023-03-01T17:46:32;6.63;55.06
71184;DHT22;58887;51.980;4.464;2023-03-01T17:48:58;6.53;55.36
71184;DHT22;58887;51.980;4.464;2023-03-01T17:51:23;6.48;55.50
71184;DHT22;58887;51.980;4.464;2023-03-01T17:53:48;6.39;55.86
71184;DHT22;58887;51.980;4.464;2023-03-01T17:56:16;6.41;55.91
71184;DHT22;58887;51.980;4.464;2023-03-01T17:58:42;6.36;56.05
71184;DHT22;58887;51.980;4.464;2023-03-01T18:01:13;6.29;56.37
71184;DHT22;58887;51.980;4.464;2023-03-01T18:03:53;6.24;56.69
71184;DHT22;58887;51.980;4.464;2023-03-01T18:06:27;6.18;56.85
71184;DHT22;58887;51.980;4.464;2023-03-01T18:08:56;6.00;57.52